Strona główna
METAR-TAF:

METAR-TAF

Lotnisko :

Charlotte, Michigan, Stany Zjednoczone

Szerokość geograficzna: 42-34-28N, Długość geograficzna: 084-48-41W, wysokość: 271 m

Aktualna obserwacja pogody

Raport powstał 19 minut temu, godzina 02:38 UTC
Wiatr 7 kt od południowo-południowy zachód
Temperatura 23°C
Wilgotność 89%
Ciśnienie 1010 hPa
Widzialność: 16.1 km
bezchmurnie

METAR: KFPK 210238Z AUTO 21007KT 10SM CLR 23/21 A2982 RMK AO2 T02260210

czas: 22:57 (02:57 UTC)


TAF: brakujący

Obserwacja i prognoza pogody dla ponad 4000 lotnisk (raport METAR i TAF).

Dostępne stacje oznaczono żółtymi i czerwonymi punktami na mapie.

Najedź kursorem aby zobaczyć nazwę stacji.

Kliknij aby zobaczyć obserwacje i prognozy pogody.

Aby zmienić mapę: kliknij na zielony przycisk z czarnym krzyżykiem, aby powiększyć; na zielony przycisk z myślnikiem, aby pomniejszyć; na zielone strzałki, aby przejść do map sąsiednich.


METAR-TAF: